sensor_id;sensor_type;location;lat;lon;timestamp;pressure;altitude;pressure_sealevel;temperature;humidity
60371;BME280;48550;40.588;49.684;2023-04-27T00:02:13;101321.56;;;15.32;100.00
60371;BME280;48550;40.588;49.684;2023-04-27T00:04:38;101322.13;;;15.34;100.00
60371;BME280;48550;40.588;49.684;2023-04-27T00:07:04;101316.72;;;15.34;100.00
60371;BME280;48550;40.588;49.684;2023-04-27T00:09:30;101313.97;;;15.29;100.00
60371;BME280;48550;40.588;49.684;2023-04-27T00:11:56;101305.53;;;15.25;100.00
60371;BME280;48550;40.588;49.684;2023-04-27T00:14:21;101305.53;;;15.25;100.00
60371;BME280;48550;40.588;49.684;2023-04-27T00:16:47;101306.59;;;15.24;100.00
60371;BME280;48550;40.588;49.684;2023-04-27T00:19:13;101303.31;;;15.22;100.00
60371;BME280;48550;40.588;49.684;2023-04-27T00:21:39;101305.44;;;15.20;100.00
60371;BME280;48550;40.588;49.684;2023-04-27T00:24:05;101303.50;;;15.16;100.00
60371;BME280;48550;40.588;49.684;2023-04-27T00:26:31;101300.47;;;15.12;100.00
60371;BME280;48550;40.588;49.684;2023-04-27T00:28:57;101310.72;;;15.10;100.00
60371;BME280;48550;40.588;49.684;2023-04-27T00:31:22;101309.81;;;15.05;100.00
60371;BME280;48550;40.588;49.684;2023-04-27T00:33:48;101301.97;;;15.03;100.00
60371;BME280;48550;40.588;49.684;2023-04-27T00:36:14;101304.84;;;14.97;100.00
60371;BME280;48550;40.588;49.684;2023-04-27T00:38:39;101313.13;;;14.90;100.00
60371;BME280;48550;40.588;49.684;2023-04-27T00:41:07;101312.44;;;14.83;100.00
60371;BME280;48550;40.588;49.684;2023-04-27T00:43:41;101296.13;;;14.78;100.00
60371;BME280;48550;40.588;49.684;2023-04-27T00:46:08;101295.81;;;14.74;100.00
60371;BME280;48550;40.588;49.684;2023-04-27T00:48:35;101291.97;;;14.70;100.00
60371;BME280;48550;40.588;49.684;2023-04-27T00:51:01;101293.19;;;14.62;100.00
60371;BME280;48550;40.588;49.684;2023-04-27T00:53:26;101300.41;;;14.57;100.00
60371;BME280;48550;40.588;49.684;2023-04-27T00:55:52;101301.28;;;14.46;100.00
60371;BME280;48550;40.588;49.684;2023-04-27T00:58:19;101299.78;;;14.38;100.00
60371;BME280;48550;40.588;49.684;2023-04-27T01:00:45;101312.28;;;14.27;100.00
60371;BME280;48550;40.588;49.684;2023-04-27T01:03:11;101312.19;;;14.22;100.00
60371;BME280;48550;40.588;49.684;2023-04-27T01:05:37;101315.47;;;14.24;100.00
60371;BME280;48550;40.588;49.684;2023-04-27T01:08:04;101321.78;;;14.30;100.00
60371;BME280;48550;40.588;49.684;2023-04-27T01:10:29;101327.34;;;14.40;100.00
60371;BME280;48550;40.588;49.684;2023-04-27T01:12:55;101330.03;;;14.52;100.00
60371;BME280;48550;40.588;49.684;2023-04-27T01:15:21;101331.19;;;14.56;100.00
60371;BME280;48550;40.588;49.684;2023-04-27T01:17:47;101333.13;;;14.60;100.00
60371;BME280;48550;40.588;49.684;2023-04-27T01:20:13;101344.09;;;14.54;100.00
60371;BME280;48550;40.588;49.684;2023-04-27T01:22:39;101343.44;;;14.47;100.00
60371;BME280;48550;40.588;49.684;2023-04-27T01:25:06;101339.19;;;14.51;100.00
60371;BME280;48550;40.588;49.684;2023-04-27T01:27:32;101343.38;;;14.58;100.00
60371;BME280;48550;40.588;49.684;2023-04-27T01:29:58;101343.78;;;14.67;100.00
60371;BME280;48550;40.588;49.684;2023-04-27T01:32:24;101359.34;;;14.77;100.00
60371;BME280;48550;40.588;49.684;2023-04-27T01:34:50;101361.97;;;14.72;100.00
60371;BME280;48550;40.588;49.684;2023-04-27T01:37:16;101370.72;;;14.62;100.00
60371;BME280;48550;40.588;49.684;2023-04-27T01:39:41;101369.91;;;14.61;100.00
60371;BME280;48550;40.588;49.684;2023-04-27T01:42:07;101363.69;;;14.61;100.00
60371;BME280;48550;40.588;49.684;2023-04-27T01:44:33;101361.97;;;14.72;100.00
60371;BME280;48550;40.588;49.684;2023-04-27T01:46:59;101360.75;;;14.79;100.00
60371;BME280;48550;40.588;49.684;2023-04-27T01:49:25;101358.28;;;14.78;100.00
60371;BME280;48550;40.588;49.684;2023-04-27T01:51:50;101356.03;;;14.86;100.00
60371;BME280;48550;40.588;49.684;2023-04-27T01:54:16;101352.59;;;14.91;100.00
60371;BME280;48550;40.588;49.684;2023-04-27T01:56:42;101356.53;;;15.00;100.00
60371;BME280;48550;40.588;49.684;2023-04-27T01:59:07;101356.69;;;15.10;100.00
60371;BME280;48550;40.588;49.684;2023-04-27T02:01:33;101364.28;;;15.13;100.00
60371;BME280;48550;40.588;49.684;2023-04-27T02:03:59;101360.91;;;15.23;100.00
60371;BME280;48550;40.588;49.684;2023-04-27T02:06:24;101364.78;;;15.27;100.00
60371;BME280;48550;40.588;49.684;2023-04-27T02:08:50;101365.09;;;15.31;100.00
60371;BME280;48550;40.588;49.684;2023-04-27T02:11:16;101364.00;;;15.48;100.00
60371;BME280;48550;40.588;49.684;2023-04-27T02:13:41;101360.13;;;15.78;100.00
60371;BME280;48550;40.588;49.684;2023-04-27T02:16:07;101352.00;;;15.78;100.00
60371;BME280;48550;40.588;49.684;2023-04-27T02:18:33;101357.09;;;15.96;100.00
60371;BME280;48550;40.588;49.684;2023-04-27T02:21:00;101349.75;;;16.18;100.00
60371;BME280;48550;40.588;49.684;2023-04-27T02:23:26;101349.25;;;16.21;100.00
60371;BME280;48550;40.588;49.684;2023-04-27T02:25:51;101368.59;;;16.08;100.00
60371;BME280;48550;40.588;49.684;2023-04-27T02:28:17;101356.69;;;16.09;100.00
60371;BME280;48550;40.588;49.684;2023-04-27T02:30:43;101358.91;;;16.12;100.00
60371;BME280;48550;40.588;49.684;2023-04-27T02:33:09;101363.03;;;16.20;100.00
60371;BME280;48550;40.588;49.684;2023-04-27T02:35:35;101366.69;;;16.31;100.00
60371;BME280;48550;40.588;49.684;2023-04-27T02:38:00;101369.31;;;16.74;100.00
60371;BME280;48550;40.588;49.684;2023-04-27T02:40:26;101375.59;;;17.96;100.00
60371;BME280;48550;40.588;49.684;2023-04-27T02:42:52;101377.47;;;18.94;100.00
60371;BME280;48550;40.588;49.684;2023-04-27T02:45:18;101377.19;;;18.75;97.32
60371;BME280;48550;40.588;49.684;2023-04-27T02:47:43;101379.53;;;18.36;100.00
60371;BME280;48550;40.588;49.684;2023-04-27T02:50:09;101378.81;;;18.71;100.00
60371;BME280;48550;40.588;49.684;2023-04-27T02:52:35;101379.25;;;19.85;86.91
60371;BME280;48550;40.588;49.684;2023-04-27T02:55:01;101382.16;;;21.31;73.24
60371;BME280;48550;40.588;49.684;2023-04-27T02:57:27;101388.13;;;22.10;60.40
60371;BME280;48550;40.588;49.684;2023-04-27T02:59:52;101388.56;;;22.17;58.96
60371;BME280;48550;40.588;49.684;2023-04-27T03:02:18;101394.78;;;22.79;58.21
60371;BME280;48550;40.588;49.684;2023-04-27T03:04:44;101388.88;;;23.56;54.18
60371;BME280;48550;40.588;49.684;2023-04-27T03:07:10;101391.00;;;23.12;52.98
60371;BME280;48550;40.588;49.684;2023-04-27T03:09:39;101391.03;;;24.00;52.43
60371;BME280;48550;40.588;49.684;2023-04-27T03:12:04;101397.31;;;24.64;49.23
60371;BME280;48550;40.588;49.684;2023-04-27T03:14:30;101396.44;;;25.22;47.66
60371;BME280;48550;40.588;49.684;2023-04-27T03:16:56;101397.81;;;25.64;45.20
60371;BME280;48550;40.588;49.684;2023-04-27T03:19:22;101405.19;;;26.34;42.55
60371;BME280;48550;40.588;49.684;2023-04-27T03:21:48;101408.75;;;25.95;43.20
60371;BME280;48550;40.588;49.684;2023-04-27T03:24:13;101393.75;;;25.61;44.20
60371;BME280;48550;40.588;49.684;2023-04-27T03:26:39;101393.03;;;25.78;44.12
60371;BME280;48550;40.588;49.684;2023-04-27T03:29:05;101383.59;;;23.73;48.36
60371;BME280;48550;40.588;49.684;2023-04-27T03:31:31;101377.69;;;22.12;54.61
60371;BME280;48550;40.588;49.684;2023-04-27T03:33:57;101385.06;;;22.35;55.17
60371;BME280;48550;40.588;49.684;2023-04-27T03:36:22;101385.38;;;23.36;51.65
60371;BME280;48550;40.588;49.684;2023-04-27T03:38:48;101379.00;;;24.09;48.19
60371;BME280;48550;40.588;49.684;2023-04-27T03:41:14;101368.06;;;23.55;51.52
60371;BME280;48550;40.588;49.684;2023-04-27T03:43:39;101374.94;;;21.69;62.33
60371;BME280;48550;40.588;49.684;2023-04-27T03:46:05;101367.69;;;20.62;70.94
60371;BME280;48550;40.588;49.684;2023-04-27T03:48:31;101355.41;;;20.16;75.03
60371;BME280;48550;40.588;49.684;2023-04-27T03:50:57;101354.31;;;19.52;74.92
60371;BME280;48550;40.588;49.684;2023-04-27T03:53:24;101350.22;;;19.29;80.12
60371;BME280;48550;40.588;49.684;2023-04-27T03:55:50;101350.22;;;19.40;80.74
60371;BME280;48550;40.588;49.684;2023-04-27T03:58:15;101348.59;;;19.39;78.40
60371;BME280;48550;40.588;49.684;2023-04-27T04:00:42;101335.81;;;19.34;75.08
60371;BME280;48550;40.588;49.684;2023-04-27T04:03:08;101337.94;;;19.57;77.60
60371;BME280;48550;40.588;49.684;2023-04-27T04:05:33;101331.66;;;19.67;73.23
60371;BME280;48550;40.588;49.684;2023-04-27T04:07:59;101338.84;;;20.51;66.08
60371;BME280;48550;40.588;49.684;2023-04-27T04:10:25;101349.31;;;21.07;62.42
60371;BME280;48550;40.588;49.684;2023-04-27T04:12:51;101349.56;;;20.77;63.33
60371;BME280;48550;40.588;49.684;2023-04-27T04:15:17;101353.75;;;21.32;59.67
60371;BME280;48550;40.588;49.684;2023-04-27T04:17:43;101357.56;;;21.31;59.49
60371;BME280;48550;40.588;49.684;2023-04-27T04:20:10;101349.56;;;20.77;61.66
60371;BME280;48550;40.588;49.684;2023-04-27T04:22:37;101342.19;;;20.38;64.16
60371;BME280;48550;40.588;49.684;2023-04-27T04:25:03;101355.31;;;20.31;63.80
60371;BME280;48550;40.588;49.684;2023-04-27T04:27:30;101345.53;;;20.25;65.01
60371;BME280;48550;40.588;49.684;2023-04-27T04:29:59;101345.50;;;20.30;64.87
60371;BME280;48550;40.588;49.684;2023-04-27T04:32:25;101345.97;;;20.47;62.92
60371;BME280;48550;40.588;49.684;2023-04-27T04:34:54;101340.28;;;20.44;61.68
60371;BME280;48550;40.588;49.684;2023-04-27T04:37:19;101344.81;;;20.58;61.84
60371;BME280;48550;40.588;49.684;2023-04-27T04:39:46;101338.16;;;21.33;57.46
60371;BME280;48550;40.588;49.684;2023-04-27T04:42:11;101343.41;;;22.76;50.72
60371;BME280;48550;40.588;49.684;2023-04-27T04:44:37;101339.38;;;21.93;53.41
60371;BME280;48550;40.588;49.684;2023-04-27T04:47:03;101332.84;;;22.13;52.34
60371;BME280;48550;40.588;49.684;2023-04-27T04:49:29;101325.44;;;22.70;50.13
60371;BME280;48550;40.588;49.684;2023-04-27T04:51:55;101326.88;;;24.23;44.44
60371;BME280;48550;40.588;49.684;2023-04-27T04:54:21;101329.63;;;25.83;40.69
60371;BME280;48550;40.588;49.684;2023-04-27T04:56:46;101342.66;;;26.26;39.33
60371;BME280;48550;40.588;49.684;2023-04-27T04:59:12;101333.72;;;27.83;36.35
60371;BME280;48550;40.588;49.684;2023-04-27T05:01:38;101332.81;;;28.29;35.09
60371;BME280;48550;40.588;49.684;2023-04-27T05:04:04;101330.69;;;28.47;34.35
60371;BME280;48550;40.588;49.684;2023-04-27T05:06:29;101321.41;;;28.31;34.22
60371;BME280;48550;40.588;49.684;2023-04-27T05:08:56;101328.50;;;28.11;34.36
60371;BME280;48550;40.588;49.684;2023-04-27T05:11:22;101334.66;;;27.58;35.07
60371;BME280;48550;40.588;49.684;2023-04-27T05:13:48;101327.41;;;28.03;34.66
60371;BME280;48550;40.588;49.684;2023-04-27T05:16:13;101335.22;;;29.42;32.22
60371;BME280;48550;40.588;49.684;2023-04-27T05:18:39;101346.72;;;28.54;32.29
60371;BME280;48550;40.588;49.684;2023-04-27T05:21:15;101343.56;;;28.76;33.08
60371;BME280;48550;40.588;49.684;2023-04-27T05:23:42;101336.84;;;28.32;33.00
60371;BME280;48550;40.588;49.684;2023-04-27T05:26:16;101340.47;;;27.94;33.30
60371;BME280;48550;40.588;49.684;2023-04-27T05:28:42;101331.03;;;28.99;32.28
60371;BME280;48550;40.588;49.684;2023-04-27T05:31:08;101326.81;;;27.98;33.43
60371;BME280;48550;40.588;49.684;2023-04-27T05:33:34;101334.75;;;27.32;34.61
60371;BME280;48550;40.588;49.684;2023-04-27T05:36:00;101335.66;;;29.20;32.66
60371;BME280;48550;40.588;49.684;2023-04-27T05:38:26;101333.19;;;29.76;30.98
60371;BME280;48550;40.588;49.684;2023-04-27T05:40:55;101329.09;;;28.25;32.96
60371;BME280;48550;40.588;49.684;2023-04-27T05:43:22;101335.50;;;28.71;33.37
60371;BME280;48550;40.588;49.684;2023-04-27T05:45:47;101327.63;;;28.61;32.74
60371;BME280;48550;40.588;49.684;2023-04-27T05:48:13;101330.81;;;27.50;34.72
60371;BME280;48550;40.588;49.684;2023-04-27T05:50:39;101328.31;;;27.66;34.99
60371;BME280;48550;40.588;49.684;2023-04-27T05:53:04;101329.53;;;27.39;35.34
60371;BME280;48550;40.588;49.684;2023-04-27T05:55:31;101335.81;;;27.86;34.31
60371;BME280;48550;40.588;49.684;2023-04-27T05:57:57;101317.78;;;27.21;35.86
60371;BME280;48550;40.588;49.684;2023-04-27T06:00:23;101326.22;;;28.13;34.59
60371;BME280;48550;40.588;49.684;2023-04-27T06:02:49;101328.00;;;27.59;35.04
60371;BME280;48550;40.588;49.684;2023-04-27T06:05:15;101320.97;;;26.76;37.52
60371;BME280;48550;40.588;49.684;2023-04-27T06:07:41;101329.69;;;26.18;39.33
60371;BME280;48550;40.588;49.684;2023-04-27T06:10:09;101330.34;;;26.67;39.02
60371;BME280;48550;40.588;49.684;2023-04-27T06:12:36;101327.13;;;26.65;40.57
60371;BME280;48550;40.588;49.684;2023-04-27T06:15:02;101323.88;;;26.54;41.13
60371;BME280;48550;40.588;49.684;2023-04-27T06:17:33;101329.53;;;27.01;39.38
60371;BME280;48550;40.588;49.684;2023-04-27T06:19:59;101327.09;;;26.99;39.71
60371;BME280;48550;40.588;49.684;2023-04-27T06:22:25;101331.09;;;27.48;38.68
60371;BME280;48550;40.588;49.684;2023-04-27T06:24:51;101335.22;;;26.52;39.48
60371;BME280;48550;40.588;49.684;2023-04-27T06:27:17;101342.03;;;26.38;40.71
60371;BME280;48550;40.588;49.684;2023-04-27T06:29:42;101330.03;;;26.85;39.87
60371;BME280;48550;40.588;49.684;2023-04-27T06:32:08;101317.91;;;26.35;41.16
60371;BME280;48550;40.588;49.684;2023-04-27T06:34:34;101325.50;;;26.12;42.27
60371;BME280;48550;40.588;49.684;2023-04-27T06:37:00;101320.84;;;26.38;41.44
60371;BME280;48550;40.588;49.684;2023-04-27T06:39:26;101321.47;;;26.44;40.23
60371;BME280;48550;40.588;49.684;2023-04-27T06:41:52;101318.72;;;26.35;40.92
60371;BME280;48550;40.588;49.684;2023-04-27T06:44:17;101325.63;;;25.98;41.84
60371;BME280;48550;40.588;49.684;2023-04-27T06:46:43;101323.41;;;26.35;41.61
60371;BME280;48550;40.588;49.684;2023-04-27T06:49:09;101317.84;;;26.95;40.85
60371;BME280;48550;40.588;49.684;2023-04-27T06:51:34;101320.00;;;26.55;40.36
60371;BME280;48550;40.588;49.684;2023-04-27T06:54:00;101313.19;;;26.18;40.39
60371;BME280;48550;40.588;49.684;2023-04-27T06:56:26;101309.50;;;26.40;40.33
60371;BME280;48550;40.588;49.684;2023-04-27T06:58:51;101318.22;;;26.59;40.28
60371;BME280;48550;40.588;49.684;2023-04-27T07:01:17;101305.00;;;27.46;38.83
60371;BME280;48550;40.588;49.684;2023-04-27T07:03:43;101314.94;;;26.74;40.65
60371;BME280;48550;40.588;49.684;2023-04-27T07:06:08;101305.09;;;27.29;39.77
60371;BME280;48550;40.588;49.684;2023-04-27T07:08:35;101311.34;;;27.46;39.09
60371;BME280;48550;40.588;49.684;2023-04-27T07:11:01;101304.06;;;26.95;40.64
60371;BME280;48550;40.588;49.684;2023-04-27T07:13:26;101296.69;;;26.52;42.31
60371;BME280;48550;40.588;49.684;2023-04-27T07:15:55;101300.34;;;27.00;41.08
60371;BME280;48550;40.588;49.684;2023-04-27T07:18:25;101281.31;;;27.53;40.28
60371;BME280;48550;40.588;49.684;2023-04-27T07:20:53;101294.41;;;26.63;42.61
60371;BME280;48550;40.588;49.684;2023-04-27T07:23:19;101283.47;;;27.39;40.74
60371;BME280;48550;40.588;49.684;2023-04-27T07:25:45;101271.53;;;26.71;41.96
60371;BME280;48550;40.588;49.684;2023-04-27T07:28:11;101260.94;;;27.37;41.18
60371;BME280;48550;40.588;49.684;2023-04-27T07:30:37;101251.09;;;28.49;39.35
60371;BME280;48550;40.588;49.684;2023-04-27T07:33:03;101263.53;;;27.42;40.49
60371;BME280;48550;40.588;49.684;2023-04-27T07:35:29;101263.03;;;27.11;41.29
60371;BME280;48550;40.588;49.684;2023-04-27T07:37:56;101264.63;;;26.48;43.29
60371;BME280;48550;40.588;49.684;2023-04-27T07:40:22;101261.72;;;26.27;45.13
60371;BME280;48550;40.588;49.684;2023-04-27T07:42:49;101258.47;;;25.82;45.67
60371;BME280;48550;40.588;49.684;2023-04-27T07:45:15;101249.88;;;25.26;47.94
60371;BME280;48550;40.588;49.684;2023-04-27T07:47:44;101245.00;;;24.84;49.84
60371;BME280;48550;40.588;49.684;2023-04-27T07:50:10;101242.16;;;24.66;51.81
60371;BME280;48550;40.588;49.684;2023-04-27T07:52:39;101235.50;;;24.59;52.33
60371;BME280;48550;40.588;49.684;2023-04-27T07:55:05;101233.50;;;24.51;54.47
60371;BME280;48550;40.588;49.684;2023-04-27T07:57:31;101234.47;;;24.77;54.56
60371;BME280;48550;40.588;49.684;2023-04-27T07:59:56;101226.06;;;25.05;54.77
60371;BME280;48550;40.588;49.684;2023-04-27T08:02:22;101233.16;;;25.06;56.42
60371;BME280;48550;40.588;49.684;2023-04-27T08:04:48;101228.38;;;24.89;56.72
60371;BME280;48550;40.588;49.684;2023-04-27T08:07:17;101213.06;;;24.96;57.65
60371;BME280;48550;40.588;49.684;2023-04-27T08:09:43;101214.75;;;24.75;59.12
60371;BME280;48550;40.588;49.684;2023-04-27T08:12:08;101214.41;;;24.68;59.99
60371;BME280;48550;40.588;49.684;2023-04-27T08:14:35;101214.22;;;24.64;60.34
60371;BME280;48550;40.588;49.684;2023-04-27T08:17:00;101213.25;;;24.38;61.58
60371;BME280;48550;40.588;49.684;2023-04-27T08:19:26;101211.03;;;24.71;59.87
60371;BME280;48550;40.588;49.684;2023-04-27T08:21:52;101210.84;;;24.67;58.89
60371;BME280;48550;40.588;49.684;2023-04-27T09:28:28;101170.03;;;24.21;65.77
60371;BME280;48550;40.588;49.684;2023-04-27T09:30:56;101167.72;;;24.15;67.01
60371;BME280;48550;40.588;49.684;2023-04-27T09:33:33;101160.16;;;23.75;69.05
60371;BME280;48550;40.588;49.684;2023-04-27T09:36:02;101158.88;;;23.95;70.38
60371;BME280;48550;40.588;49.684;2023-04-27T09:38:28;101156.91;;;23.73;71.21
60371;BME280;48550;40.588;49.684;2023-04-27T09:40:54;101143.66;;;23.53;73.94
60371;BME280;48550;40.588;49.684;2023-04-27T09:43:21;101146.22;;;23.50;74.11
60371;BME280;48550;40.588;49.684;2023-04-27T09:45:48;101146.19;;;23.63;74.36
60371;BME280;48550;40.588;49.684;2023-04-27T09:48:15;101135.50;;;23.75;71.96
60371;BME280;48550;40.588;49.684;2023-04-27T09:50:42;101144.50;;;23.40;73.60
60371;BME280;48550;40.588;49.684;2023-04-27T09:53:13;101140.81;;;23.08;76.43
60371;BME280;48550;40.588;49.684;2023-04-27T09:58:42;101127.03;;;23.13;74.47
60371;BME280;48550;40.588;49.684;2023-04-27T10:01:29;101123.06;;;23.20;74.97
60371;BME280;48550;40.588;49.684;2023-04-27T10:06:51;101120.56;;;23.45;72.67
60371;BME280;48550;40.588;49.684;2023-04-27T10:09:21;101125.59;;;23.52;72.22
60371;BME280;48550;40.588;49.684;2023-04-27T10:11:51;101122.78;;;23.07;75.56
60371;BME280;48550;40.588;49.684;2023-04-27T10:14:19;101130.97;;;23.21;75.57
60371;BME280;48550;40.588;49.684;2023-04-27T10:16:53;101123.44;;;23.27;75.51
60371;BME280;48550;40.588;49.684;2023-04-27T10:19:21;101127.41;;;23.21;73.98
60371;BME280;48550;40.588;49.684;2023-04-27T10:22:00;101126.91;;;22.91;74.06
60371;BME280;48550;40.588;49.684;2023-04-27T10:24:39;101117.91;;;23.04;74.61
60371;BME280;48550;40.588;49.684;2023-04-27T10:27:07;101114.66;;;23.16;73.54
60371;BME280;48550;40.588;49.684;2023-04-27T10:29:44;101118.94;;;23.44;71.72
60371;BME280;48550;40.588;49.684;2023-04-27T10:32:24;101120.25;;;23.47;70.81
60371;BME280;48550;40.588;49.684;2023-04-27T10:34:51;101119.16;;;23.70;67.89
60371;BME280;48550;40.588;49.684;2023-04-27T10:37:37;101107.78;;;23.77;65.46
60371;BME280;48550;40.588;49.684;2023-04-27T10:40:09;101103.84;;;23.69;65.17
60371;BME280;48550;40.588;49.684;2023-04-27T10:42:39;101092.00;;;23.60;64.37
60371;BME280;48550;40.588;49.684;2023-04-27T10:45:05;101100.78;;;23.71;63.14
60371;BME280;48550;40.588;49.684;2023-04-27T10:47:43;101102.56;;;23.53;64.08
60371;BME280;48550;40.588;49.684;2023-04-27T10:50:11;101094.66;;;23.52;64.92
60371;BME280;48550;40.588;49.684;2023-04-27T10:52:46;101087.22;;;23.66;65.76
60371;BME280;48550;40.588;49.684;2023-04-27T10:55:20;101086.41;;;23.65;65.12
60371;BME280;48550;40.588;49.684;2023-04-27T10:57:53;101095.16;;;23.54;66.22
60371;BME280;48550;40.588;49.684;2023-04-27T11:00:24;101088.19;;;23.48;68.04
60371;BME280;48550;40.588;49.684;2023-04-27T11:02:52;101097.44;;;23.38;69.46
60371;BME280;48550;40.588;49.684;2023-04-27T11:05:26;101076.38;;;23.25;71.72
60371;BME280;48550;40.588;49.684;2023-04-27T11:08:11;101068.53;;;23.09;73.23
60371;BME280;48550;40.588;49.684;2023-04-27T11:10:39;101066.28;;;23.11;74.14
60371;BME280;48550;40.588;49.684;2023-04-27T11:13:10;101064.66;;;23.10;75.68
60371;BME280;48550;40.588;49.684;2023-04-27T11:16:04;101045.00;;;23.08;74.77
60371;BME280;48550;40.588;49.684;2023-04-27T11:18:31;101058.75;;;23.17;74.99
60371;BME280;48550;40.588;49.684;2023-04-27T11:21:09;101052.56;;;23.25;73.34
60371;BME280;48550;40.588;49.684;2023-04-27T11:23:35;101050.47;;;23.08;76.47
60371;BME280;48550;40.588;49.684;2023-04-27T11:26:16;101057.59;;;22.82;78.08
60371;BME280;48550;40.588;49.684;2023-04-27T11:28:44;101056.88;;;22.76;80.42
60371;BME280;48550;40.588;49.684;2023-04-27T11:31:21;101049.06;;;22.70;81.61
60371;BME280;48550;40.588;49.684;2023-04-27T11:33:47;101046.75;;;22.63;82.73
60371;BME280;48550;40.588;49.684;2023-04-27T11:36:18;101035.81;;;22.36;85.79
60371;BME280;48550;40.588;49.684;2023-04-27T11:38:44;101041.34;;;22.17;90.10
60371;BME280;48550;40.588;49.684;2023-04-27T11:41:10;101026.22;;;21.92;94.76
60371;BME280;48550;40.588;49.684;2023-04-27T11:43:40;101029.00;;;22.06;95.16
60371;BME280;48550;40.588;49.684;2023-04-27T11:46:19;101032.69;;;21.96;96.45
60371;BME280;48550;40.588;49.684;2023-04-27T11:48:45;101029.53;;;21.89;99.25
60371;BME280;48550;40.588;49.684;2023-04-27T11:51:11;101029.66;;;21.98;99.86
60371;BME280;48550;40.588;49.684;2023-04-27T11:53:38;101025.06;;;21.79;100.00
60371;BME280;48550;40.588;49.684;2023-04-27T11:56:09;101013.94;;;21.76;100.00
60371;BME280;48550;40.588;49.684;2023-04-27T11:58:36;101027.19;;;21.82;100.00
60371;BME280;48550;40.588;49.684;2023-04-27T12:01:03;101021.22;;;21.80;100.00
60371;BME280;48550;40.588;49.684;2023-04-27T12:03:29;101013.72;;;21.72;100.00
60371;BME280;48550;40.588;49.684;2023-04-27T12:05:56;101006.16;;;21.83;100.00
60371;BME280;48550;40.588;49.684;2023-04-27T12:08:22;101017.06;;;21.69;100.00
60371;BME280;48550;40.588;49.684;2023-04-27T12:10:48;101011.25;;;21.57;100.00
60371;BME280;48550;40.588;49.684;2023-04-27T12:13:14;101011.25;;;21.57;100.00
60371;BME280;48550;40.588;49.684;2023-04-27T12:15:41;101001.66;;;21.41;100.00
60371;BME280;48550;40.588;49.684;2023-04-27T12:18:07;100991.16;;;21.48;100.00
60371;BME280;48550;40.588;49.684;2023-04-27T12:20:34;101004.97;;;21.56;100.00
60371;BME280;48550;40.588;49.684;2023-04-27T12:23:00;101003.91;;;21.71;100.00
60371;BME280;48550;40.588;49.684;2023-04-27T12:25:26;101002.97;;;21.62;100.00
60371;BME280;48550;40.588;49.684;2023-04-27T12:27:52;101010.59;;;21.46;100.00
60371;BME280;48550;40.588;49.684;2023-04-27T12:30:18;101008.75;;;21.42;100.00
60371;BME280;48550;40.588;49.684;2023-04-27T12:32:44;101010.88;;;21.45;100.00
60371;BME280;48550;40.588;49.684;2023-04-27T12:35:10;101025.63;;;21.44;100.00
60371;BME280;48550;40.588;49.684;2023-04-27T12:37:36;101009.09;;;21.54;100.00
60371;BME280;48550;40.588;49.684;2023-04-27T12:40:02;101024.38;;;21.55;100.00
60371;BME280;48550;40.588;49.684;2023-04-27T12:42:31;101024.38;;;21.55;100.00
60371;BME280;48550;40.588;49.684;2023-04-27T12:44:57;101012.66;;;21.36;100.00
60371;BME280;48550;40.588;49.684;2023-04-27T12:47:23;101032.44;;;21.28;100.00
60371;BME280;48550;40.588;49.684;2023-04-27T12:49:49;101026.59;;;21.15;100.00
60371;BME280;48550;40.588;49.684;2023-04-27T12:52:16;101031.84;;;21.12;100.00
60371;BME280;48550;40.588;49.684;2023-04-27T12:54:41;101039.84;;;21.27;100.00
60371;BME280;48550;40.588;49.684;2023-04-27T12:57:07;101041.81;;;21.03;100.00
60371;BME280;48550;40.588;49.684;2023-04-27T12:59:34;101037.28;;;20.93;100.00
60371;BME280;48550;40.588;49.684;2023-04-27T13:02:01;101036.72;;;20.96;100.00
60371;BME280;48550;40.588;49.684;2023-04-27T13:04:29;101036.56;;;20.87;100.00
60371;BME280;48550;40.588;49.684;2023-04-27T13:06:56;101045.09;;;20.81;100.00
60371;BME280;48550;40.588;49.684;2023-04-27T13:09:26;101045.72;;;20.73;100.00
60371;BME280;48550;40.588;49.684;2023-04-27T13:11:52;101029.94;;;20.70;100.00
60371;BME280;48550;40.588;49.684;2023-04-27T13:14:19;101030.75;;;20.70;100.00
60371;BME280;48550;40.588;49.684;2023-04-27T13:16:45;101041.78;;;20.60;100.00
60371;BME280;48550;40.588;49.684;2023-04-27T13:19:10;101032.56;;;20.56;100.00
60371;BME280;48550;40.588;49.684;2023-04-27T13:21:36;101030.25;;;20.44;100.00
60371;BME280;48550;40.588;49.684;2023-04-27T13:24:02;101027.63;;;20.34;100.00
60371;BME280;48550;40.588;49.684;2023-04-27T13:26:28;101031.81;;;20.26;100.00
60371;BME280;48550;40.588;49.684;2023-04-27T13:28:54;101030.47;;;19.95;100.00
60371;BME280;48550;40.588;49.684;2023-04-27T13:31:19;101030.53;;;19.90;100.00
60371;BME280;48550;40.588;49.684;2023-04-27T13:33:45;101030.22;;;19.91;100.00
60371;BME280;48550;40.588;49.684;2023-04-27T13:36:11;101029.03;;;19.74;100.00
60371;BME280;48550;40.588;49.684;2023-04-27T13:38:37;101035.16;;;19.60;100.00
60371;BME280;48550;40.588;49.684;2023-04-27T13:41:04;101037.34;;;19.58;100.00
60371;BME280;48550;40.588;49.684;2023-04-27T13:43:30;101033.84;;;19.48;100.00
60371;BME280;48550;40.588;49.684;2023-04-27T13:46:00;101034.38;;;19.50;100.00